Time;durP1;ratioP1;P1;durP2;ratioP2;P2;SDS_P1;SDS_P2;PMS_P1;PMS_P2;Temp;Humidity;BMP_temperature;BMP_pressure;BME280_temperature;BME280_humidity;BME280_pressure;Samples;Min_cycle;Max_cycle;Signal;HPM_P1;HPM_P2
2023/07/06 00:01:25;;;;;;;20.83;19.02;;;12.00;99.90;;;;;;4952308;28;20107;-85
2023/07/06 00:03:56;;;;;;;19.95;18.25;;;11.80;99.90;;;;;;4936447;28;20399;-85
2023/07/06 00:06:22;;;;;;;20.83;18.95;;;12.00;99.90;;;;;;4936028;28;20071;-84
2023/07/06 00:08:48;;;;;;;18.73;17.05;;;11.90;99.90;;;;;;4969737;28;20110;-85
2023/07/06 00:11:16;;;;;;;20.23;18.50;;;11.90;99.90;;;;;;4969676;28;20576;-85
2023/07/06 00:13:45;;;;;;;20.95;19.23;;;11.90;99.90;;;;;;4936249;28;20085;-85
2023/07/06 00:16:10;;;;;;;20.75;18.70;;;11.90;99.90;;;;;;4936336;28;20118;-85
2023/07/06 00:18:39;;;;;;;20.10;18.30;;;11.90;99.90;;;;;;4952380;28;20035;-85
2023/07/06 00:21:04;;;;;;;18.63;16.80;;;11.80;99.90;;;;;;4935468;28;20046;-85
2023/07/06 00:23:31;;;;;;;17.92;16.23;;;11.80;99.90;;;;;;4969006;28;20055;-85
2023/07/06 00:25:57;;;;;;;22.92;20.48;;;11.80;99.90;;;;;;4936031;28;20047;-85
2023/07/06 00:28:28;;;;;;;34.72;31.90;;;11.80;99.90;;;;;;4968130;28;20073;-85
2023/07/06 00:30:57;;;;;;;36.35;33.22;;;11.70;99.90;;;;;;4936659;28;20050;-85
2023/07/06 00:33:24;;;;;;;25.17;23.00;;;11.70;99.90;;;;;;4939511;28;20041;-85
2023/07/06 00:35:52;;;;;;;25.20;23.17;;;11.70;99.90;;;;;;4955083;28;20111;-85
2023/07/06 00:38:23;;;;;;;48.28;44.58;;;11.70;99.90;;;;;;4936304;29;20039;-85
2023/07/06 00:41:00;;;;;;;35.10;32.17;;;11.70;99.90;;;;;;4953399;29;20048;-86
2023/07/06 00:43:45;;;;;;;43.47;40.22;;;11.70;99.90;;;;;;4941331;28;20046;-85
2023/07/06 00:46:12;;;;;;;26.77;24.30;;;11.60;99.90;;;;;;4955693;28;20077;-86
2023/07/06 00:48:44;;;;;;;36.97;34.20;;;11.60;99.90;;;;;;4939556;28;20109;-85
2023/07/06 00:51:32;;;;;;;26.25;23.88;;;11.60;99.90;;;;;;4956780;28;20035;-86
2023/07/06 00:54:08;;;;;;;29.42;26.90;;;11.60;99.90;;;;;;4973036;28;20102;-86
2023/07/06 00:56:46;;;;;;;39.72;36.78;;;11.50;99.90;;;;;;4988193;28;20051;-85
2023/07/06 00:59:17;;;;;;;50.28;46.45;;;11.60;99.90;;;;;;4972756;28;20558;-85
2023/07/06 01:01:46;;;;;;;29.52;27.33;;;11.40;99.90;;;;;;4939370;28;20043;-85
2023/07/06 01:04:15;;;;;;;30.58;28.10;;;11.40;99.90;;;;;;4954396;28;20050;-84
2023/07/06 01:06:49;;;;;;;37.15;34.25;;;11.40;99.90;;;;;;4939209;28;20049;-86
2023/07/06 01:09:17;;;;;;;34.80;31.80;;;11.40;99.90;;;;;;4939450;28;20071;-85
2023/07/06 01:11:44;;;;;;;90.25;83.88;;;11.30;99.90;;;;;;4955301;28;20504;-86
2023/07/06 01:14:13;;;;;;;96.85;90.18;;;11.30;99.90;;;;;;4954907;28;20037;-86
2023/07/06 01:16:55;;;;;;;38.08;34.75;;;11.30;99.90;;;;;;4987453;28;20469;-86
2023/07/06 01:19:36;;;;;;;66.18;61.33;;;11.30;99.90;;;;;;4938759;28;20137;-86
2023/07/06 01:22:38;;;;;;;61.20;56.88;;;11.30;99.90;;;;;;4954878;28;20519;-86
2023/07/06 01:25:25;;;;;;;80.07;74.30;;;11.30;99.90;;;;;;4971892;28;20062;-86
2023/07/06 01:28:23;;;;;;;65.43;60.90;;;11.30;99.90;;;;;;4938633;28;20494;-86
2023/07/06 01:31:24;;;;;;;118.95;110.72;;;11.20;99.90;;;;;;4938640;28;20580;-86
2023/07/06 01:34:11;;;;;;;74.97;69.38;;;11.20;99.90;;;;;;4954203;28;20090;-86
2023/07/06 01:36:46;;;;;;;86.65;80.72;;;11.20;99.90;;;;;;4986956;28;20042;-85
2023/07/06 01:39:22;;;;;;;52.97;49.03;;;11.20;99.90;;;;;;4938760;28;20047;-85
2023/07/06 01:42:28;;;;;;;83.15;76.93;;;11.60;99.90;;;;;;4970765;28;20453;-85
2023/07/06 01:45:00;;;;;;;82.57;76.85;;;11.10;99.90;;;;;;4914606;29;20040;-85
2023/07/06 01:47:31;;;;;;;60.63;56.17;;;11.10;99.90;;;;;;4914167;29;20048;-85
2023/07/06 01:49:58;;;;;;;73.20;68.00;;;11.10;99.90;;;;;;4930420;29;20078;-86
2023/07/06 01:52:41;;;;;;;66.40;61.72;;;11.10;99.90;;;;;;4914643;29;20494;-86
2023/07/06 01:55:35;;;;;;;72.28;67.20;;;11.10;99.90;;;;;;4913929;29;20076;-86
2023/07/06 01:58:32;;;;;;;118.80;110.68;;;11.00;99.90;;;;;;4898979;29;20460;-85
2023/07/06 02:01:08;;;;;;;90.05;83.72;;;11.10;99.90;;;;;;4930057;29;20501;-86
2023/07/06 02:03:36;;;;;;;91.38;85.20;;;11.10;99.90;;;;;;4895439;29;20079;-86
2023/07/06 02:06:04;;;;;;;118.18;109.22;;;11.20;99.90;;;;;;4911253;29;20079;-86
2023/07/06 02:08:31;;;;;;;89.47;83.15;;;11.20;99.90;;;;;;4911140;29;20089;-86
2023/07/06 02:10:56;;;;;;;92.68;86.10;;;11.30;99.90;;;;;;4911301;29;20052;-86
2023/07/06 02:13:23;;;;;;;89.50;83.07;;;11.40;99.90;;;;;;4897613;29;20123;-86
2023/07/06 02:15:51;;;;;;;113.68;106.15;;;11.40;99.90;;;;;;4913434;29;20119;-86
2023/07/06 02:18:17;;;;;;;81.60;75.95;;;11.50;99.90;;;;;;4925608;28;20059;-86
2023/07/06 02:20:47;;;;;;;77.32;71.60;;;11.30;99.90;;;;;;4969615;28;20270;-86
2023/07/06 02:23:15;;;;;;;73.32;68.32;;;11.50;99.90;;;;;;4970749;28;20505;-86
2023/07/06 02:25:42;;;;;;;83.38;77.57;;;11.50;99.90;;;;;;4985767;28;20039;-86
2023/07/06 02:28:08;;;;;;;108.38;100.65;;;11.50;99.90;;;;;;4985900;28;20042;-86
2023/07/06 02:30:34;;;;;;;68.75;63.63;;;11.50;99.90;;;;;;4937030;28;20047;-85
2023/07/06 02:33:00;;;;;;;77.55;72.20;;;11.50;99.90;;;;;;4953907;28;20362;-86
2023/07/06 02:35:25;;;;;;;78.97;73.05;;;11.50;99.90;;;;;;4953440;28;20050;-86
2023/07/06 02:37:52;;;;;;;75.47;70.13;;;11.60;99.90;;;;;;4985667;28;20039;-86
2023/07/06 02:40:22;;;;;;;63.30;58.67;;;11.60;99.90;;;;;;4952960;28;20057;-85
2023/07/06 02:42:48;;;;;;;56.13;52.00;;;11.60;99.90;;;;;;4953408;28;20035;-86
2023/07/06 02:45:17;;;;;;;34.95;32.03;;;11.60;99.90;;;;;;4937136;28;20074;-86
2023/07/06 02:47:43;;;;;;;51.40;47.72;;;11.50;99.90;;;;;;4937485;28;20047;-86
2023/07/06 02:50:11;;;;;;;51.85;48.05;;;11.50;99.90;;;;;;4953367;28;20053;-86
2023/07/06 02:52:37;;;;;;;42.45;38.97;;;11.50;99.90;;;;;;4937285;28;20397;-86
2023/07/06 02:55:04;;;;;;;33.88;30.80;;;11.60;99.90;;;;;;4936512;28;20039;-86
2023/07/06 02:57:31;;;;;;;32.08;29.33;;;11.60;99.90;;;;;;4952815;28;20074;-86
2023/07/06 02:59:57;;;;;;;46.22;42.75;;;11.60;99.90;;;;;;4984780;28;20126;-86
2023/07/06 03:02:23;;;;;;;30.05;27.55;;;11.60;99.90;;;;;;4970423;28;20122;-86
2023/07/06 03:04:52;;;;;;;38.15;35.35;;;11.60;99.90;;;;;;4969510;28;20175;-86
2023/07/06 03:07:18;;;;;;;46.35;42.67;;;11.60;99.90;;;;;;4952851;28;20076;-86
2023/07/06 03:09:47;;;;;;;37.40;34.45;;;11.60;99.90;;;;;;4953863;28;20042;-86
2023/07/06 03:12:14;;;;;;;24.33;22.10;;;11.50;99.90;;;;;;4953289;28;20545;-86
2023/07/06 03:14:46;;;;;;;24.50;22.15;;;11.50;99.90;;;;;;4936935;28;20046;-85
2023/07/06 03:17:15;;;;;;;35.25;32.58;;;11.40;99.90;;;;;;4970283;28;20106;-86
2023/07/06 03:19:41;;;;;;;28.48;26.25;;;11.40;99.90;;;;;;4953003;28;20039;-86
2023/07/06 03:22:07;;;;;;;47.45;43.58;;;11.40;99.90;;;;;;4952508;28;20047;-86
2023/07/06 03:24:33;;;;;;;44.88;41.40;;;11.30;99.90;;;;;;4970033;28;20098;-86
2023/07/06 03:27:01;;;;;;;54.97;51.05;;;11.30;99.90;;;;;;4968985;28;20038;-86
2023/07/06 03:29:27;;;;;;;40.45;37.15;;;11.30;99.90;;;;;;4984556;28;20057;-87
2023/07/06 03:31:53;;;;;;;35.47;33.03;;;11.30;99.90;;;;;;4970140;28;20042;-86
2023/07/06 03:34:20;;;;;;;38.47;35.55;;;11.30;99.90;;;;;;4952923;28;20079;-86
2023/07/06 03:36:46;;;;;;;27.83;25.35;;;11.30;99.90;;;;;;4952591;28;20101;-86
2023/07/06 03:39:12;;;;;;;36.10;32.78;;;11.30;99.90;;;;;;4969734;28;20568;-86
2023/07/06 03:41:40;;;;;;;36.05;33.28;;;11.20;99.90;;;;;;4952944;28;20043;-86
2023/07/06 03:44:06;;;;;;;49.53;45.92;;;11.20;99.90;;;;;;4969502;28;20042;-85
2023/07/06 03:46:34;;;;;;;73.63;68.53;;;11.20;99.90;;;;;;4936826;28;20034;-86
2023/07/06 03:49:03;;;;;;;73.22;68.22;;;11.30;99.90;;;;;;4952826;28;20046;-86
2023/07/06 03:51:30;;;;;;;79.30;73.72;;;11.40;99.90;;;;;;4936452;28;20522;-85
2023/07/06 03:53:56;;;;;;;56.35;52.58;;;11.40;99.90;;;;;;4969739;28;20101;-86
2023/07/06 03:56:27;;;;;;;65.72;61.08;;;11.50;99.90;;;;;;4952607;28;20046;-86
2023/07/06 03:58:56;;;;;;;78.60;73.13;;;11.60;99.90;;;;;;4961665;28;20047;-86
2023/07/06 04:01:33;;;;;;;84.57;78.70;;;11.70;99.90;;;;;;4969119;28;20512;-87
2023/07/06 04:04:01;;;;;;;54.30;50.33;;;11.80;99.90;;;;;;4971146;28;20049;-86
2023/07/06 04:06:28;;;;;;;54.75;50.15;;;11.90;99.90;;;;;;4935245;28;20039;-86
2023/07/06 04:09:03;;;;;;;79.47;73.80;;;12.00;99.90;;;;;;4973589;28;20490;-87
2023/07/06 04:11:28;;;;;;;48.92;45.15;;;12.00;99.90;;;;;;4988777;28;20402;-86
2023/07/06 04:13:57;;;;;;;32.42;29.58;;;12.10;99.90;;;;;;4971040;28;20125;-86
2023/07/06 04:16:23;;;;;;;39.65;36.58;;;12.20;99.90;;;;;;4973157;28;20057;-86
2023/07/06 04:18:52;;;;;;;36.80;33.75;;;12.30;99.90;;;;;;4973422;28;20035;-86
2023/07/06 04:21:21;;;;;;;28.52;25.77;;;12.30;99.90;;;;;;4955769;28;20047;-85
2023/07/06 04:23:48;;;;;;;23.98;21.67;;;12.40;99.90;;;;;;4940067;28;20516;-82
2023/07/06 04:26:18;;;;;;;20.63;18.60;;;12.50;99.90;;;;;;4974361;28;20216;-89
2023/07/06 04:28:46;;;;;;;24.02;21.65;;;12.50;99.90;;;;;;4958283;28;20073;-90
2023/07/06 04:31:17;;;;;;;21.60;19.05;;;12.50;99.90;;;;;;4941170;28;20061;-91
2023/07/06 04:33:45;;;;;;;19.23;17.20;;;12.50;99.90;;;;;;4941388;28;20508;-91
2023/07/06 04:36:15;;;;;;;24.00;19.90;;;12.60;99.90;;;;;;4941614;28;20162;-90
2023/07/06 04:38:41;;;;;;;17.17;15.25;;;12.60;99.90;;;;;;4941408;28;20042;-91
2023/07/06 04:41:08;;;;;;;19.98;16.30;;;12.60;99.90;;;;;;4972672;28;20401;-90
2023/07/06 04:43:33;;;;;;;16.05;14.30;;;12.60;99.90;;;;;;4941529;28;20069;-93
2023/07/06 04:45:59;;;;;;;22.15;16.75;;;12.60;99.90;;;;;;4973093;28;20117;-93
2023/07/06 04:48:26;;;;;;;16.35;14.57;;;12.70;99.90;;;;;;4957665;28;20096;-93
2023/07/06 04:50:53;;;;;;;19.15;14.93;;;12.70;99.90;;;;;;4957222;28;20046;-93
2023/07/06 04:53:23;;;;;;;18.80;14.95;;;12.60;99.90;;;;;;4957233;28;20042;-93
2023/07/06 04:55:50;;;;;;;17.42;13.85;;;12.70;99.90;;;;;;4940540;28;20062;-93
2023/07/06 04:58:16;;;;;;;17.27;14.77;;;12.70;99.90;;;;;;4941187;28;20046;-93
2023/07/06 05:00:45;;;;;;;19.55;16.45;;;12.80;99.90;;;;;;4957428;28;20126;-93
2023/07/06 05:03:12;;;;;;;22.27;17.48;;;12.80;99.90;;;;;;4942201;28;20086;-93
2023/07/06 05:05:43;;;;;;;22.35;14.48;;;12.80;99.90;;;;;;4942026;28;20070;-93
2023/07/06 05:08:15;;;;;;;17.25;15.43;;;12.80;99.90;;;;;;4957960;28;20126;-92
2023/07/06 05:10:48;;;;;;;22.95;15.95;;;12.90;99.90;;;;;;4975562;28;20033;-92
2023/07/06 05:13:14;;;;;;;19.27;16.13;;;12.90;99.90;;;;;;4966480;28;20034;-93
2023/07/06 05:15:40;;;;;;;18.90;15.45;;;13.00;99.90;;;;;;4974638;28;20042;-92
2023/07/06 05:18:06;;;;;;;23.40;18.33;;;13.20;99.90;;;;;;4945205;28;20042;-91
2023/07/06 05:20:33;;;;;;;26.95;22.60;;;13.40;99.90;;;;;;4958285;28;20118;-89
2023/07/06 05:22:59;;;;;;;25.20;15.68;;;14.30;99.90;;;;;;4943566;28;20055;-92
2023/07/06 05:25:26;;;;;;;15.38;10.75;;;15.50;99.90;;;;;;4959787;28;20109;-92
2023/07/06 05:27:52;;;;;;;18.58;12.57;;;16.40;99.90;;;;;;4958265;28;20039;-92
2023/07/06 05:30:21;;;;;;;15.40;13.00;;;16.60;99.90;;;;;;4958336;28;20045;-92
2023/07/06 05:32:48;;;;;;;16.02;14.35;;;16.50;99.90;;;;;;4942302;28;20134;-92
2023/07/06 05:35:18;;;;;;;16.50;9.85;;;16.40;99.90;;;;;;4942874;28;20129;-92
2023/07/06 05:37:44;;;;;;;14.52;10.60;;;16.30;99.90;;;;;;4957478;28;20042;-92
2023/07/06 05:40:10;;;;;;;20.60;15.85;;;16.10;99.90;;;;;;4942126;28;20271;-92
2023/07/06 05:42:36;;;;;;;17.80;11.18;;;16.00;99.90;;;;;;4958618;28;20105;-92
2023/07/06 05:45:05;;;;;;;14.88;10.27;;;16.00;99.90;;;;;;4957933;28;20070;-93
2023/07/06 05:47:31;;;;;;;14.40;9.52;;;16.90;99.90;;;;;;4942097;28;20077;-93
2023/07/06 05:50:00;;;;;;;12.93;8.18;;;18.30;99.90;;;;;;4974572;28;20486;-93
2023/07/06 05:52:28;;;;;;;14.48;7.07;;;19.60;99.90;;;;;;4958507;28;20047;-92
2023/07/06 05:54:54;;;;;;;12.02;7.95;;;20.80;99.90;;;;;;4958158;28;20038;-92
2023/07/06 05:57:23;;;;;;;11.43;7.72;;;21.60;99.90;;;;;;4973444;28;20041;-93
2023/07/06 05:59:53;;;;;;;15.57;9.55;;;22.50;99.90;;;;;;4942530;28;20074;-95
2023/07/06 06:02:22;;;;;;;19.58;9.45;;;23.10;99.90;;;;;;4941657;28;20490;-93
2023/07/06 06:04:51;;;;;;;17.15;8.15;;;23.60;99.90;;;;;;4958600;28;20046;-92
2023/07/06 06:07:22;;;;;;;14.60;8.75;;;24.20;99.90;;;;;;4973261;28;20074;-94
2023/07/06 06:09:48;;;;;;;17.58;8.18;;;24.50;99.90;;;;;;4957518;28;20039;-93
2023/07/06 06:12:20;;;;;;;11.98;6.85;;;24.80;99.90;;;;;;4943204;28;20043;-93
2023/07/06 06:14:50;;;;;;;8.85;6.75;;;25.40;99.90;;;;;;4973707;28;20039;-93
2023/07/06 06:17:20;;;;;;;13.75;10.48;;;26.00;99.90;;;;;;4941548;28;20042;-94
2023/07/06 06:19:47;;;;;;;51.05;47.40;;;25.90;99.90;;;;;;4939731;28;20130;-94
2023/07/06 06:22:17;;;;;;;103.25;96.40;;;25.90;99.90;;;;;;4939424;28;20145;-92
2023/07/06 06:24:44;;;;;;;154.20;145.20;;;26.50;99.90;;;;;;4956067;28;20050;-95
2023/07/06 06:27:15;;;;;;;146.30;137.48;;;27.00;99.90;;;;;;4939958;28;20109;-93
2023/07/06 06:29:42;;;;;;;196.55;184.63;;;27.00;99.90;;;;;;4987136;28;20042;-90
2023/07/06 06:32:09;;;;;;;190.90;178.25;;;27.10;99.90;;;;;;4939955;28;20549;-92
2023/07/06 06:34:36;;;;;;;319.48;296.75;;;27.10;99.90;;;;;;4939435;28;20090;-91
2023/07/06 06:37:04;;;;;;;463.20;427.67;;;27.60;99.90;;;;;;4939265;28;20049;-92
2023/07/06 06:39:31;;;;;;;904.90;820.38;;;27.90;99.90;;;;;;4939417;28;20501;-92
2023/07/06 06:41:57;;;;;;;1202.95;997.80;;;28.10;99.70;;;;;;4955384;28;20034;-92
2023/07/06 06:44:22;;;;;;;1398.63;999.90;;;28.50;99.60;;;;;;4939267;28;20405;-93
2023/07/06 06:46:48;;;;;;;1682.35;999.90;;;28.70;99.00;;;;;;4955919;28;20038;-91
2023/07/06 06:49:16;;;;;;;1730.43;999.90;;;29.10;98.30;;;;;;4938730;28;20046;-91
2023/07/06 06:51:42;;;;;;;1939.40;999.90;;;28.80;98.70;;;;;;4938975;28;20045;-92
2023/07/06 06:54:08;;;;;;;1999.90;999.90;;;29.00;97.70;;;;;;4955766;28;20035;-91
2023/07/06 06:56:35;;;;;;;1999.90;999.90;;;29.40;98.20;;;;;;4939451;28;20090;-93
2023/07/06 06:59:01;;;;;;;1999.90;999.90;;;29.80;97.80;;;;;;4939566;28;20046;-92
2023/07/06 07:01:27;;;;;;;1999.90;999.90;;;30.00;97.50;;;;;;4971537;28;20516;-92
2023/07/06 07:03:52;;;;;;;1999.90;999.90;;;29.90;97.40;;;;;;4939380;28;20043;-92
2023/07/06 07:06:22;;;;;;;1999.90;999.90;;;30.10;97.30;;;;;;4970978;28;20039;-93
2023/07/06 07:08:53;;;;;;;1999.90;999.90;;;30.30;96.80;;;;;;4940769;28;20047;-91
2023/07/06 07:11:25;;;;;;;1999.90;999.90;;;30.70;96.50;;;;;;4940387;28;20047;-92
2023/07/06 07:13:52;;;;;;;1999.90;999.90;;;30.50;96.30;;;;;;4955054;28;20364;-91
2023/07/06 07:16:21;;;;;;;1999.90;999.90;;;30.40;95.80;;;;;;4939027;28;20070;-92
2023/07/06 07:18:48;;;;;;;1999.90;999.90;;;30.30;95.70;;;;;;4945700;28;20302;-92
2023/07/06 07:21:19;;;;;;;1999.90;999.90;;;30.20;95.70;;;;;;4959771;28;20322;-92
2023/07/06 07:23:52;;;;;;;1999.90;999.90;;;30.40;95.80;;;;;;4967234;28;20055;-90
2023/07/06 07:26:22;;;;;;;1999.90;999.90;;;30.20;95.20;;;;;;4950576;28;20050;-91
2023/07/06 07:28:52;;;;;;;1999.90;999.90;;;30.30;96.00;;;;;;4957795;28;20074;-92
2023/07/06 07:31:22;;;;;;;1999.90;999.90;;;30.50;95.10;;;;;;4955433;28;20413;-92
2023/07/06 07:33:51;;;;;;;1999.90;999.90;;;30.40;95.00;;;;;;4939460;28;20478;-91
2023/07/06 07:36:22;;;;;;;1999.90;999.90;;;30.40;94.50;;;;;;4938701;28;20082;-91
2023/07/06 07:38:56;;;;;;;1999.90;999.90;;;30.50;95.30;;;;;;4939028;28;20445;-91
2023/07/06 07:41:22;;;;;;;1999.90;999.90;;;30.50;95.50;;;;;;4938328;28;20386;-92
2023/07/06 07:43:51;;;;;;;1999.90;999.90;;;30.70;94.90;;;;;;4938704;28;20041;-90
2023/07/06 07:46:22;;;;;;;1999.90;999.90;;;30.00;94.50;;;;;;4940918;28;20415;-90
2023/07/06 07:48:53;;;;;;;1999.90;999.90;;;29.80;95.30;;;;;;4941889;28;20038;-90
2023/07/06 07:51:26;;;;;;;1999.90;999.90;;;30.20;95.50;;;;;;4959503;28;20043;-90
2023/07/06 07:53:54;;;;;;;1999.90;999.90;;;30.20;94.30;;;;;;4956418;28;20051;-92
2023/07/06 07:56:22;;;;;;;1999.90;999.90;;;30.10;94.60;;;;;;4955860;28;20146;-91
2023/07/06 07:58:48;;;;;;;1999.90;999.90;;;30.40;94.90;;;;;;4955435;28;20074;-91
2023/07/06 08:01:21;;;;;;;1999.90;999.90;;;30.40;95.10;;;;;;4938944;28;20039;-90
2023/07/06 08:03:47;;;;;;;1999.90;999.90;;;30.50;94.50;;;;;;4955940;28;20093;-91
2023/07/06 08:06:16;;;;;;;1999.90;999.90;;;30.50;94.50;;;;;;4940657;28;20038;-91
2023/07/06 08:08:43;;;;;;;1999.90;999.90;;;30.30;93.30;;;;;;4938519;28;20539;-91
2023/07/06 08:11:14;;;;;;;1999.90;999.90;;;30.40;94.80;;;;;;4938369;28;20042;-91
2023/07/06 08:13:41;;;;;;;1999.90;999.90;;;30.30;93.50;;;;;;4954537;28;20049;-91
2023/07/06 08:16:08;;;;;;;1999.90;999.90;;;30.50;93.60;;;;;;4954163;28;20047;-90
2023/07/06 08:18:34;;;;;;;1999.90;999.90;;;30.50;94.30;;;;;;4954018;28;20047;-91
2023/07/06 08:21:01;;;;;;;1999.90;999.90;;;30.60;94.10;;;;;;4970011;28;20035;-91
2023/07/06 08:23:28;;;;;;;1999.90;999.90;;;30.90;94.10;;;;;;4938044;28;20050;-90
2023/07/06 08:25:54;;;;;;;1999.90;999.90;;;30.80;93.10;;;;;;4937857;28;20742;-90
2023/07/06 08:28:31;;;;;;;1999.90;999.90;;;30.90;93.30;;;;;;4938073;28;20085;-89
2023/07/06 08:31:03;;;;;;;1999.90;999.90;;;30.90;92.30;;;;;;4937806;28;20089;-91
2023/07/06 08:33:35;;;;;;;1999.90;999.90;;;30.30;93.30;;;;;;4938147;28;20049;-90
2023/07/06 08:36:06;;;;;;;1999.90;999.90;;;29.30;93.30;;;;;;4954042;28;20078;-90
2023/07/06 08:38:33;;;;;;;1999.90;999.90;;;29.00;93.60;;;;;;4937699;28;20043;-90
2023/07/06 08:41:03;;;;;;;1999.90;999.90;;;29.20;93.40;;;;;;4937349;28;20126;-90
2023/07/06 08:43:31;;;;;;;1999.90;999.90;;;29.70;93.20;;;;;;4937691;28;20481;-91
2023/07/06 08:46:04;;;;;;;1999.90;999.90;;;30.00;92.20;;;;;;4938225;28;20043;-89
2023/07/06 08:48:34;;;;;;;1999.90;999.90;;;30.30;92.90;;;;;;4937474;28;20068;-90
2023/07/06 08:51:03;;;;;;;1999.90;999.90;;;30.50;92.50;;;;;;4954096;28;20043;-90
2023/07/06 08:53:33;;;;;;;1999.90;999.90;;;30.80;92.20;;;;;;4955829;28;20473;-90
2023/07/06 08:56:03;;;;;;;1999.90;999.90;;;31.10;92.00;;;;;;4941017;28;20038;-90
2023/07/06 08:58:36;;;;;;;1999.90;999.90;;;30.90;92.50;;;;;;4941991;28;20053;-89
2023/07/06 09:01:23;;;;;;;1999.90;999.90;;;30.40;92.20;;;;;;4942970;28;20050;-88
2023/07/06 09:03:55;;;;;;;1999.90;999.90;;;29.70;91.70;;;;;;4959479;28;20034;-90
2023/07/06 09:06:25;;;;;;;1999.90;999.90;;;29.30;91.90;;;;;;4942929;28;20457;-89
2023/07/06 09:09:03;;;;;;;1999.90;999.90;;;28.90;92.90;;;;;;4958435;28;20097;-89
2023/07/06 09:11:33;;;;;;;1999.90;999.90;;;28.80;93.80;;;;;;4956756;28;20038;-89
2023/07/06 09:14:10;;;;;;;1999.90;999.90;;;28.60;92.50;;;;;;4957303;28;20508;-89
2023/07/06 09:16:45;;;;;;;1999.90;999.90;;;28.30;93.40;;;;;;4973722;28;20122;-90
2023/07/06 09:19:14;;;;;;;1999.90;999.90;;;28.20;93.30;;;;;;4973395;28;20416;-90
2023/07/06 09:21:47;;;;;;;1999.90;999.90;;;28.20;93.30;;;;;;4940767;28;20494;-89
2023/07/06 09:24:16;;;;;;;1999.90;999.90;;;27.80;93.10;;;;;;4941254;28;20053;-88
2023/07/06 09:26:44;;;;;;;1999.90;999.90;;;27.30;92.60;;;;;;4958251;28;20570;-89
2023/07/06 09:29:18;;;;;;;1756.35;999.90;;;26.70;93.30;;;;;;4956258;28;20074;-89
2023/07/06 09:31:47;;;;;;;1130.35;981.47;;;26.00;93.30;;;;;;4960238;28;20049;-89
2023/07/06 09:34:28;;;;;;;1101.43;981.45;;;25.60;93.40;;;;;;4944108;28;20038;-89
2023/07/06 09:36:54;;;;;;;1070.05;958.55;;;25.90;94.60;;;;;;4940584;28;20489;-89
2023/07/06 09:39:20;;;;;;;1061.05;950.10;;;26.10;94.80;;;;;;4940343;28;20042;-89
2023/07/06 09:41:46;;;;;;;1079.18;963.60;;;26.20;94.50;;;;;;4956298;28;20260;-89
2023/07/06 09:44:32;;;;;;;1039.78;933.50;;;26.40;94.60;;;;;;4956143;28;20035;-89
2023/07/06 09:46:59;;;;;;;1039.35;933.83;;;26.10;93.20;;;;;;4972030;28;20089;-88
2023/07/06 09:49:35;;;;;;;981.00;888.40;;;25.60;94.30;;;;;;4940723;28;20101;-88
2023/07/06 09:52:05;;;;;;;964.97;875.22;;;25.30;94.10;;;;;;4956571;28;20078;-89
2023/07/06 09:55:02;;;;;;;894.42;816.30;;;25.00;94.10;;;;;;4957798;28;20398;-89
2023/07/06 09:57:33;;;;;;;916.75;837.35;;;24.70;93.90;;;;;;4863533;29;20482;-89
2023/07/06 10:00:00;;;;;;;914.97;834.13;;;24.50;94.30;;;;;;4862960;29;20100;-89
2023/07/06 10:02:51;;;;;;;908.78;829.67;;;24.40;94.60;;;;;;4863173;29;20147;-88
2023/07/06 10:05:57;;;;;;;884.45;807.97;;;24.40;95.30;;;;;;4862715;29;20243;-89
2023/07/06 10:08:33;;;;;;;876.40;801.85;;;24.50;95.60;;;;;;4878779;29;20053;-88
2023/07/06 10:11:13;;;;;;;831.92;765.17;;;24.50;95.40;;;;;;4878302;29;20135;-89
2023/07/06 10:13:56;;;;;;;789.17;728.00;;;24.30;95.20;;;;;;4863265;29;20105;-90
2023/07/06 10:16:44;;;;;;;747.20;690.35;;;24.20;95.60;;;;;;4878501;29;20328;-89
2023/07/06 10:19:32;;;;;;;748.50;690.38;;;24.10;94.90;;;;;;4863204;29;20048;-89
2023/07/06 10:22:26;;;;;;;777.72;717.47;;;24.50;96.10;;;;;;4877833;29;20095;-89
2023/07/06 10:25:20;;;;;;;727.95;672.88;;;24.80;95.50;;;;;;4862348;29;20084;-89
2023/07/06 10:27:55;;;;;;;751.38;693.78;;;25.10;95.00;;;;;;4862500;29;20115;-89
2023/07/06 10:30:31;;;;;;;729.05;674.00;;;25.30;95.40;;;;;;4862258;29;20404;-90
2023/07/06 10:33:00;;;;;;;682.30;631.88;;;25.50;94.60;;;;;;4862879;29;20079;-90
2023/07/06 10:35:33;;;;;;;702.70;650.08;;;25.60;95.00;;;;;;4950317;28;20137;-90
2023/07/06 10:37:59;;;;;;;661.40;613.90;;;25.80;94.70;;;;;;4955265;28;20121;-90
2023/07/06 10:40:27;;;;;;;692.03;640.95;;;25.90;94.90;;;;;;4939370;28;20382;-90
2023/07/06 10:43:11;;;;;;;782.97;722.22;;;26.10;95.10;;;;;;4939583;28;20043;-90
2023/07/06 10:45:46;;;;;;;718.88;664.95;;;26.30;95.40;;;;;;4939454;28;20039;-89
2023/07/06 10:48:21;;;;;;;691.40;640.65;;;25.90;94.30;;;;;;4960160;28;20497;-91
2023/07/06 10:51:07;;;;;;;792.38;730.47;;;25.60;94.30;;;;;;4940013;28;20046;-89
2023/07/06 10:53:42;;;;;;;767.35;708.38;;;25.50;94.40;;;;;;4954782;28;20054;-89
2023/07/06 10:56:11;;;;;;;576.22;537.22;;;25.70;95.20;;;;;;4938666;28;20051;-89
2023/07/06 10:58:59;;;;;;;;;;;25.80;93.30;;;;;;4987143;28;20413;-88
2023/07/06 11:01:39;;;;;;;639.95;593.72;;;25.60;94.00;;;;;;4955345;28;19925;-89
2023/07/06 11:04:36;;;;;;;550.60;513.20;;;25.80;94.20;;;;;;4939609;28;20042;-89
2023/07/06 11:07:02;;;;;;;596.17;554.08;;;26.00;94.20;;;;;;4987166;28;20127;-89
2023/07/06 11:09:29;;;;;;;623.58;578.65;;;26.10;93.60;;;;;;4970897;28;20043;-89
2023/07/06 11:11:55;;;;;;;597.67;556.05;;;26.00;93.10;;;;;;4954771;28;20121;-89
2023/07/06 11:14:31;;;;;;;612.58;568.80;;;25.90;92.90;;;;;;4938183;28;20078;-89
2023/07/06 11:17:04;;;;;;;565.65;527.20;;;25.70;92.60;;;;;;4938016;28;20085;-89
2023/07/06 11:19:38;;;;;;;559.97;521.65;;;25.50;92.70;;;;;;4954103;28;20088;-90
2023/07/06 11:22:21;;;;;;;605.03;562.28;;;25.30;93.30;;;;;;4938322;28;20059;-90
2023/07/06 11:24:54;;;;;;;575.45;534.75;;;25.10;93.50;;;;;;4953878;28;20117;-89
2023/07/06 11:27:32;;;;;;;685.85;635.47;;;25.00;93.60;;;;;;4937910;28;20394;-89
2023/07/06 11:30:15;;;;;;;657.15;608.83;;;25.20;94.50;;;;;;4954399;28;20043;-89
2023/07/06 11:33:06;;;;;;;556.15;517.42;;;25.40;93.20;;;;;;4937721;28;20053;-88
2023/07/06 11:35:40;;;;;;;626.95;581.83;;;25.40;92.10;;;;;;4955915;28;20134;-89
2023/07/06 11:38:42;;;;;;;506.10;472.85;;;25.50;94.50;;;;;;4942244;28;20055;-88
2023/07/06 11:41:24;;;;;;;614.40;571.00;;;25.90;94.00;;;;;;4959992;28;20485;-89
2023/07/06 11:44:04;;;;;;;579.28;539.58;;;26.00;94.00;;;;;;4942312;28;20125;-90
2023/07/06 11:46:43;;;;;;;601.25;559.17;;;26.00;93.20;;;;;;4970607;28;20049;-89
2023/07/06 11:49:24;;;;;;;670.00;621.22;;;25.60;93.60;;;;;;4970718;28;20039;-88
2023/07/06 11:51:50;;;;;;;636.15;590.85;;;25.50;93.80;;;;;;4970225;28;20038;-88
2023/07/06 11:54:40;;;;;;;730.22;675.05;;;25.50;94.00;;;;;;4970501;28;20121;-89
2023/07/06 11:57:41;;;;;;;733.63;677.63;;;25.20;94.00;;;;;;4953300;28;20202;-88
2023/07/06 12:03:00;;;;;;;743.78;687.58;;;25.00;94.50;;;;;;4950395;29;20094;-88
2023/07/06 12:05:35;;;;;;;731.38;675.47;;;24.80;94.30;;;;;;4950322;29;20039;-89
2023/07/06 12:08:16;;;;;;;732.65;677.30;;;24.50;93.80;;;;;;4934017;29;20043;-88
2023/07/06 12:10:45;;;;;;;643.67;597.40;;;24.20;94.50;;;;;;4933928;29;20039;-88
2023/07/06 12:13:25;;;;;;;647.08;599.55;;;24.20;93.60;;;;;;4952764;28;20043;-88
2023/07/06 12:16:03;;;;;;;686.85;635.80;;;24.10;93.40;;;;;;4952767;28;20282;-88
2023/07/06 12:18:29;;;;;;;639.25;592.92;;;24.40;94.20;;;;;;4953418;28;20062;-88
2023/07/06 12:20:55;;;;;;;716.35;662.72;;;24.50;94.10;;;;;;4936981;28;20039;-88
2023/07/06 12:23:22;;;;;;;618.80;574.72;;;24.70;94.20;;;;;;4936953;28;20093;-88
2023/07/06 12:25:48;;;;;;;507.45;474.00;;;25.00;94.30;;;;;;4953015;28;20122;-88
2023/07/06 12:28:17;;;;;;;425.13;399.02;;;25.20;93.70;;;;;;4939375;28;20034;-88
2023/07/06 12:30:43;;;;;;;508.30;474.75;;;25.40;93.20;;;;;;4956953;28;20057;-89
2023/07/06 12:33:13;;;;;;;502.08;469.23;;;25.80;93.40;;;;;;4957096;28;20109;-88
2023/07/06 12:35:40;;;;;;;527.97;492.13;;;26.00;92.70;;;;;;4941009;28;20049;-88
2023/07/06 12:38:12;;;;;;;490.95;459.40;;;25.50;92.50;;;;;;4957865;28;20283;-89
2023/07/06 12:40:38;;;;;;;562.97;524.40;;;25.60;92.80;;;;;;4956851;28;20121;-88